sensor_id;sensor_type;location;lat;lon;timestamp;P1;durP1;ratioP1;P2;durP2;ratioP2
16626;SDS011;8427;52.204;7.202;2023-08-17T04:56:58;50.13;;;46.63;;
16626;SDS011;8427;52.204;7.202;2023-08-17T04:59:26;52.73;;;48.73;;
16626;SDS011;8427;52.204;7.202;2023-08-17T05:01:54;44.70;;;41.90;;
16626;SDS011;8427;52.204;7.202;2023-08-17T05:04:22;45.77;;;42.87;;
16626;SDS011;8427;52.204;7.202;2023-08-17T05:06:51;44.60;;;41.80;;
16626;SDS011;8427;52.204;7.202;2023-08-17T05:09:19;45.57;;;42.67;;
16626;SDS011;8427;52.204;7.202;2023-08-17T05:11:47;45.20;;;42.33;;
16626;SDS011;8427;52.204;7.202;2023-08-17T05:14:15;44.10;;;41.40;;
16626;SDS011;8427;52.204;7.202;2023-08-17T05:16:43;45.00;;;42.20;;
16626;SDS011;8427;52.204;7.202;2023-08-17T05:19:11;46.90;;;43.90;;
16626;SDS011;8427;52.204;7.202;2023-08-17T05:22:12;43.70;;;41.20;;
16626;SDS011;8427;52.204;7.202;2023-08-17T05:24:40;43.20;;;40.70;;
16626;SDS011;8427;52.204;7.202;2023-08-17T05:27:08;46.57;;;44.07;;
16626;SDS011;8427;52.204;7.202;2023-08-17T05:29:37;42.53;;;40.23;;
16626;SDS011;8427;52.204;7.202;2023-08-17T05:32:05;42.60;;;40.30;;
16626;SDS011;8427;52.204;7.202;2023-08-17T05:34:33;42.33;;;40.13;;
16626;SDS011;8427;52.204;7.202;2023-08-17T05:37:01;42.20;;;40.00;;
16626;SDS011;8427;52.204;7.202;2023-08-17T05:39:30;42.33;;;40.13;;
16626;SDS011;8427;52.204;7.202;2023-08-17T05:42:01;43.80;;;41.50;;
16626;SDS011;8427;52.204;7.202;2023-08-17T05:44:29;42.00;;;39.90;;
16626;SDS011;8427;52.204;7.202;2023-08-17T05:46:57;42.53;;;40.33;;
16626;SDS011;8427;52.204;7.202;2023-08-17T05:49:25;42.90;;;40.60;;
16626;SDS011;8427;52.204;7.202;2023-08-17T05:51:53;42.70;;;40.40;;
16626;SDS011;8427;52.204;7.202;2023-08-17T05:54:21;43.60;;;41.30;;
16626;SDS011;8427;52.204;7.202;2023-08-17T05:56:50;41.97;;;39.87;;
16626;SDS011;8427;52.204;7.202;2023-08-17T05:59:18;42.97;;;40.77;;
16626;SDS011;8427;52.204;7.202;2023-08-17T06:01:46;41.83;;;39.73;;
16626;SDS011;8427;52.204;7.202;2023-08-17T06:04:14;43.53;;;41.33;;
16626;SDS011;8427;52.204;7.202;2023-08-17T06:06:42;42.17;;;40.07;;
16626;SDS011;8427;52.204;7.202;2023-08-17T06:09:10;42.60;;;40.40;;
16626;SDS011;8427;52.204;7.202;2023-08-17T06:11:38;43.93;;;41.63;;
16626;SDS011;8427;52.204;7.202;2023-08-17T06:14:07;45.50;;;42.90;;
16626;SDS011;8427;52.204;7.202;2023-08-17T06:16:35;45.90;;;43.30;;
16626;SDS011;8427;52.204;7.202;2023-08-17T06:19:03;48.10;;;45.00;;
16626;SDS011;8427;52.204;7.202;2023-08-17T06:21:31;51.10;;;47.10;;
16626;SDS011;8427;52.204;7.202;2023-08-17T06:23:59;52.63;;;48.17;;
16626;SDS011;8427;52.204;7.202;2023-08-17T06:26:27;52.80;;;48.40;;
16626;SDS011;8427;52.204;7.202;2023-08-17T06:28:55;52.13;;;47.83;;
16626;SDS011;8427;52.204;7.202;2023-08-17T06:31:25;53.43;;;48.73;;
16626;SDS011;8427;52.204;7.202;2023-08-17T06:33:53;54.43;;;49.83;;
16626;SDS011;8427;52.204;7.202;2023-08-17T06:36:22;52.20;;;47.70;;
16626;SDS011;8427;52.204;7.202;2023-08-17T06:38:50;51.90;;;47.47;;
16626;SDS011;8427;52.204;7.202;2023-08-17T06:41:17;57.30;;;51.20;;
16626;SDS011;8427;52.204;7.202;2023-08-17T06:43:46;54.83;;;49.53;;
16626;SDS011;8427;52.204;7.202;2023-08-17T06:46:14;55.60;;;50.00;;
16626;SDS011;8427;52.204;7.202;2023-08-17T06:48:43;59.03;;;53.13;;
16626;SDS011;8427;52.204;7.202;2023-08-17T06:51:11;54.87;;;49.47;;
16626;SDS011;8427;52.204;7.202;2023-08-17T06:53:40;54.50;;;49.40;;
16626;SDS011;8427;52.204;7.202;2023-08-17T06:56:09;53.07;;;48.23;;
16626;SDS011;8427;52.204;7.202;2023-08-17T06:58:37;55.00;;;49.80;;
16626;SDS011;8427;52.204;7.202;2023-08-17T07:01:05;54.33;;;49.43;;
16626;SDS011;8427;52.204;7.202;2023-08-17T08:35:03;39.72;;;37.92;;
16626;SDS011;8427;52.204;7.202;2023-08-17T08:37:32;42.20;;;40.00;;
16626;SDS011;8427;52.204;7.202;2023-08-17T08:40:00;43.97;;;41.47;;
16626;SDS011;8427;52.204;7.202;2023-08-17T08:42:28;44.60;;;42.10;;
16626;SDS011;8427;52.204;7.202;2023-08-17T08:44:56;44.93;;;42.23;;
16626;SDS011;8427;52.204;7.202;2023-08-17T08:47:24;46.03;;;43.13;;
16626;SDS011;8427;52.204;7.202;2023-08-17T08:49:57;44.10;;;41.50;;
16626;SDS011;8427;52.204;7.202;2023-08-17T08:52:30;44.23;;;41.73;;
16626;SDS011;8427;52.204;7.202;2023-08-17T08:55:05;43.80;;;41.30;;
16626;SDS011;8427;52.204;7.202;2023-08-17T08:57:38;43.77;;;41.27;;
16626;SDS011;8427;52.204;7.202;2023-08-17T09:00:08;44.00;;;41.50;;
16626;SDS011;8427;52.204;7.202;2023-08-17T09:02:38;43.67;;;41.27;;
16626;SDS011;8427;52.204;7.202;2023-08-17T09:05:09;46.23;;;43.40;;
16626;SDS011;8427;52.204;7.202;2023-08-17T09:07:38;42.33;;;40.13;;
16626;SDS011;8427;52.204;7.202;2023-08-17T09:10:06;42.37;;;40.17;;
16626;SDS011;8427;52.204;7.202;2023-08-17T09:12:38;41.97;;;39.87;;
16626;SDS011;8427;52.204;7.202;2023-08-17T09:15:07;42.30;;;40.10;;
16626;SDS011;8427;52.204;7.202;2023-08-17T09:17:36;42.70;;;40.40;;
16626;SDS011;8427;52.204;7.202;2023-08-17T09:20:05;42.47;;;40.20;;
16626;SDS011;8427;52.204;7.202;2023-08-17T09:22:40;42.80;;;40.50;;
16626;SDS011;8427;52.204;7.202;2023-08-17T09:25:09;43.17;;;40.77;;
16626;SDS011;8427;52.204;7.202;2023-08-17T09:27:38;42.77;;;40.40;;
16626;SDS011;8427;52.204;7.202;2023-08-17T09:30:09;43.20;;;40.80;;
16626;SDS011;8427;52.204;7.202;2023-08-17T09:32:38;43.73;;;41.23;;
16626;SDS011;8427;52.204;7.202;2023-08-17T09:35:06;43.27;;;40.77;;
16626;SDS011;8427;52.204;7.202;2023-08-17T09:37:35;44.27;;;41.67;;
16626;SDS011;8427;52.204;7.202;2023-08-17T09:40:05;46.90;;;43.80;;
16626;SDS011;8427;52.204;7.202;2023-08-17T09:42:35;46.33;;;43.23;;
16626;SDS011;8427;52.204;7.202;2023-08-17T09:45:03;79.83;;;58.40;;
16626;SDS011;8427;52.204;7.202;2023-08-17T18:56:53;63.60;;;52.72;;
16626;SDS011;8427;52.204;7.202;2023-08-17T18:59:23;46.90;;;43.57;;
16626;SDS011;8427;52.204;7.202;2023-08-17T19:01:51;47.17;;;43.77;;
16626;SDS011;8427;52.204;7.202;2023-08-17T19:04:19;48.70;;;45.00;;
16626;SDS011;8427;52.204;7.202;2023-08-17T19:06:47;48.60;;;44.80;;
16626;SDS011;8427;52.204;7.202;2023-08-17T19:09:14;48.40;;;44.60;;
16626;SDS011;8427;52.204;7.202;2023-08-17T19:11:43;46.20;;;42.90;;
16626;SDS011;8427;52.204;7.202;2023-08-17T19:14:11;49.67;;;45.87;;
16626;SDS011;8427;52.204;7.202;2023-08-17T19:16:40;66.63;;;50.50;;
16626;SDS011;8427;52.204;7.202;2023-08-17T19:19:09;46.20;;;42.90;;
16626;SDS011;8427;52.204;7.202;2023-08-17T19:21:37;47.50;;;44.10;;
16626;SDS011;8427;52.204;7.202;2023-08-17T19:24:05;45.43;;;42.53;;
16626;SDS011;8427;52.204;7.202;2023-08-17T19:26:33;44.70;;;41.90;;
16626;SDS011;8427;52.204;7.202;2023-08-17T19:29:01;45.83;;;43.00;;
16626;SDS011;8427;52.204;7.202;2023-08-17T19:31:29;44.27;;;41.50;;
16626;SDS011;8427;52.204;7.202;2023-08-17T19:33:59;45.10;;;42.30;;
16626;SDS011;8427;52.204;7.202;2023-08-17T19:36:27;43.93;;;41.23;;
16626;SDS011;8427;52.204;7.202;2023-08-17T19:38:55;45.77;;;42.87;;
16626;SDS011;8427;52.204;7.202;2023-08-17T19:41:23;43.80;;;41.10;;
16626;SDS011;8427;52.204;7.202;2023-08-17T19:43:51;44.97;;;42.17;;
16626;SDS011;8427;52.204;7.202;2023-08-17T19:46:19;45.40;;;42.60;;
16626;SDS011;8427;52.204;7.202;2023-08-17T19:48:47;44.27;;;41.57;;
16626;SDS011;8427;52.204;7.202;2023-08-17T19:51:17;44.77;;;42.00;;
16626;SDS011;8427;52.204;7.202;2023-08-17T19:53:45;46.53;;;43.50;;
16626;SDS011;8427;52.204;7.202;2023-08-17T19:56:13;43.83;;;41.13;;
16626;SDS011;8427;52.204;7.202;2023-08-17T19:58:41;45.73;;;42.83;;
16626;SDS011;8427;52.204;7.202;2023-08-17T20:01:09;45.30;;;42.50;;
16626;SDS011;8427;52.204;7.202;2023-08-17T20:03:38;44.57;;;41.77;;
16626;SDS011;8427;52.204;7.202;2023-08-17T20:06:06;46.40;;;43.50;;
16626;SDS011;8427;52.204;7.202;2023-08-17T20:08:36;45.07;;;42.17;;
